createdAt,value
2017-08-27T11:18:23.619Z,99195.03
2017-08-27T11:20:54.034Z,99189.19
2017-08-27T11:23:23.746Z,99182.30
2017-08-27T11:25:53.458Z,99186.49
2017-08-27T11:28:23.923Z,99186.59
2017-08-27T11:30:53.707Z,99189.19
2017-08-27T11:33:23.507Z,99186.03
2017-08-27T11:35:53.504Z,99185.99
2017-08-27T11:38:23.468Z,99187.91
2017-08-27T11:40:53.814Z,99185.70
2017-08-27T11:43:23.859Z,99174.28
2017-08-27T11:45:53.596Z,99175.20
2017-08-27T11:48:23.244Z,99174.41
2017-08-27T11:50:53.524Z,99147.98
2017-08-27T11:53:23.432Z,99175.14
2017-08-27T11:55:53.075Z,99178.80
2017-08-27T11:58:53.606Z,99152.84
2017-08-27T12:01:23.577Z,99180.31
2017-08-27T12:03:53.534Z,99172.38
2017-08-27T12:06:23.226Z,99158.23
2017-08-27T12:08:52.943Z,99172.77
2017-08-27T12:11:23.156Z,99154.36
2017-08-27T12:13:52.947Z,99172.16
2017-08-27T12:16:22.741Z,99174.06
2017-08-27T12:18:52.946Z,99173.47
2017-08-27T12:21:23.082Z,99173.63
2017-08-27T12:23:52.889Z,99164.20
2017-08-27T12:26:23.312Z,99175.94
2017-08-27T12:28:53.220Z,99157.30
2017-08-27T12:31:23.043Z,99173.86
2017-08-27T12:33:53.360Z,99177.32
2017-08-27T12:36:23.644Z,99154.69
2017-08-27T12:38:53.667Z,99171.33
2017-08-27T12:41:26.261Z,99168.50
2017-08-27T12:43:56.784Z,99166.36
2017-08-27T12:46:27.278Z,99167.70
2017-08-27T12:48:57.121Z,99173.67
2017-08-27T12:51:26.788Z,99181.58
2017-08-27T12:53:59.443Z,99172.70
2017-08-27T12:56:29.225Z,99171.16
2017-08-27T12:58:59.723Z,99173.25
2017-08-27T13:01:29.662Z,99166.67
2017-08-27T13:03:59.947Z,99167.70
2017-08-27T13:06:30.438Z,99167.50
2017-08-27T13:09:00.214Z,99153.95
2017-08-27T13:11:30.155Z,99173.34
2017-08-27T13:14:02.608Z,99153.11
2017-08-27T13:16:32.338Z,99136.50
2017-08-27T13:19:02.199Z,99166.81
2017-08-27T13:21:32.727Z,99163.39
2017-08-27T13:24:02.517Z,99147.31
2017-08-27T13:26:32.805Z,99164.58
2017-08-27T13:29:03.546Z,99162.66
2017-08-27T13:31:33.760Z,99151.47
2017-08-27T13:34:03.980Z,99146.19
2017-08-27T13:36:34.022Z,99148.97
2017-08-27T13:39:05.581Z,99152.81
2017-08-27T13:41:36.510Z,99148.61
2017-08-27T13:44:07.531Z,99137.92
2017-08-27T13:46:50.052Z,99152.52
2017-08-27T13:49:36.906Z,99126.64
2017-08-27T13:52:09.669Z,99154.41
2017-08-27T13:54:57.636Z,99157.05
2017-08-27T13:57:27.637Z,99099.82
2017-08-27T13:59:59.097Z,99156.06
2017-08-27T14:02:33.371Z,99124.89
2017-08-27T14:05:13.411Z,99150.26
2017-08-27T14:07:43.447Z,99157.04
2017-08-27T14:10:13.368Z,99161.45
2017-08-27T14:12:44.194Z,99165.05
2017-08-27T14:15:14.356Z,99160.94
2017-08-27T14:17:44.133Z,99152.76
2017-08-27T14:20:14.363Z,99120.20
2017-08-27T14:22:44.352Z,99163.24
2017-08-27T14:25:14.147Z,99157.67
2017-08-27T14:27:44.275Z,99162.68
2017-08-27T14:30:14.089Z,99163.08
2017-08-27T14:32:43.816Z,99159.98
2017-08-27T14:35:14.585Z,99160.38
2017-08-27T14:37:44.263Z,99162.68
2017-08-27T14:40:14.795Z,99158.02
2017-08-27T14:42:44.778Z,99149.66
2017-08-27T14:45:14.531Z,99119.11
2017-08-27T14:47:44.436Z,99163.95
2017-08-27T14:50:14.559Z,99160.77
2017-08-27T14:52:44.405Z,99120.59
2017-08-27T14:55:14.118Z,99164.03
2017-08-27T14:57:44.311Z,99162.45
2017-08-27T15:00:14.414Z,99156.49
2017-08-27T15:02:44.126Z,99157.91
2017-08-27T15:05:14.158Z,99154.25
2017-08-27T15:07:44.000Z,99109.18
2017-08-27T15:10:13.803Z,99129.59
2017-08-27T15:12:43.899Z,99105.13
2017-08-27T15:15:13.988Z,99153.40
2017-08-27T15:17:44.562Z,99106.65
2017-08-27T15:20:17.154Z,99146.65
2017-08-27T15:22:46.922Z,99145.10
2017-08-27T15:25:18.730Z,99140.46
2017-08-27T15:27:48.843Z,99140.92
2017-08-27T15:30:18.515Z,99143.61
2017-08-27T15:32:48.531Z,99146.15
2017-08-27T15:35:18.633Z,99098.28
2017-08-27T15:37:48.290Z,99146.31
2017-08-27T15:40:18.169Z,99144.34
2017-08-27T15:42:48.288Z,99148.00
2017-08-27T15:45:17.977Z,99142.83
2017-08-27T15:47:48.030Z,99145.98
2017-08-27T15:50:20.435Z,99141.43
2017-08-27T15:52:55.046Z,99088.52
2017-08-27T15:55:50.865Z,99142.83
2017-08-27T15:58:24.995Z,99123.74
2017-08-27T16:01:05.015Z,99110.28
2017-08-27T16:04:01.165Z,99108.80
2017-08-27T16:06:35.431Z,99145.30
2017-08-27T16:09:19.679Z,99117.96
2017-08-27T16:11:57.444Z,99109.87
2017-08-27T16:14:27.844Z,99157.17
2017-08-27T16:16:58.189Z,99146.07
2017-08-27T16:19:28.378Z,99142.98
2017-08-27T16:21:59.689Z,99132.21
2017-08-27T16:24:32.336Z,99104.30
2017-08-27T16:27:04.413Z,99158.61
2017-08-27T16:29:34.487Z,99158.25
2017-08-27T16:32:05.863Z,99158.70
2017-08-27T16:34:35.789Z,99157.36
2017-08-27T16:37:06.182Z,99160.78
2017-08-27T16:39:37.434Z,99161.97
2017-08-27T16:42:09.140Z,99138.37
2017-08-27T16:44:39.301Z,99144.38
2017-08-27T16:47:17.704Z,99161.08
2017-08-27T16:49:47.906Z,99138.41
2017-08-27T16:52:20.258Z,99164.98
2017-08-27T16:54:51.105Z,99167.83
2017-08-27T16:57:21.508Z,99108.66
2017-08-27T16:59:51.908Z,99164.05
2017-08-27T17:02:23.580Z,99167.27
2017-08-27T17:04:59.828Z,99123.89
2017-08-27T17:07:34.477Z,99121.41
2017-08-27T17:10:04.848Z,99170.02
2017-08-27T17:12:35.996Z,99174.75
2017-08-27T17:15:06.420Z,99170.14
2017-08-27T17:17:36.292Z,99167.31
2017-08-27T17:20:07.167Z,99151.91
2017-08-27T17:22:37.220Z,99168.34
2017-08-27T17:25:07.248Z,99169.03
2017-08-27T17:27:37.397Z,99168.90
2017-08-27T17:30:07.784Z,99170.81
2017-08-27T17:32:39.020Z,99154.56
2017-08-27T17:35:09.328Z,99202.93
2017-08-27T17:37:39.862Z,99132.07
2017-08-27T17:40:10.043Z,99180.78
2017-08-27T17:42:40.262Z,99189.94
2017-08-27T17:45:10.381Z,99179.13
2017-08-27T17:47:41.229Z,99217.06
2017-08-27T17:50:12.762Z,99166.88
2017-08-27T17:52:43.535Z,99185.37
2017-08-27T17:55:14.650Z,99174.75
2017-08-27T17:57:45.252Z,99178.87
2017-08-27T18:00:15.360Z,99181.50
2017-08-27T18:02:45.863Z,99181.11
2017-08-27T18:05:18.492Z,99204.44
2017-08-27T18:07:50.512Z,99200.48
2017-08-27T18:10:23.893Z,99172.14
2017-08-27T18:12:54.388Z,99202.86
2017-08-27T18:15:25.976Z,99199.83
2017-08-27T18:17:57.769Z,99198.27
2017-08-27T18:20:29.123Z,99200.84
2017-08-27T18:23:00.429Z,99154.60
2017-08-27T18:25:31.776Z,99192.06
2017-08-27T18:28:02.739Z,99211.11
2017-08-27T18:30:37.066Z,99209.43
2017-08-27T18:33:07.318Z,99210.22
2017-08-27T18:35:38.635Z,99218.36
2017-08-27T18:38:09.205Z,99182.53
2017-08-27T18:40:39.640Z,99215.23
2017-08-27T18:43:10.572Z,99224.50
2017-08-27T18:45:41.865Z,99215.60
2017-08-27T18:48:11.647Z,99215.65
2017-08-27T18:50:42.860Z,99243.78
2017-08-27T18:55:51.658Z,99255.70
2017-08-27T18:58:23.841Z,99261.41
2017-08-27T19:00:55.348Z,99261.75
2017-08-27T19:03:25.827Z,99255.67
2017-08-27T19:05:58.792Z,99270.73
2017-08-27T19:08:31.828Z,99273.81
2017-08-27T19:11:02.122Z,99237.88
2017-08-27T19:13:35.585Z,99305.91
2017-08-27T19:16:06.671Z,99284.33
2017-08-27T19:18:36.742Z,99286.26
2017-08-27T19:21:06.912Z,99258.22
2017-08-27T19:23:37.951Z,99296.83
2017-08-27T19:26:08.286Z,99291.48
2017-08-27T19:28:39.395Z,99304.81
2017-08-27T19:31:10.061Z,99308.75
2017-08-27T19:33:39.840Z,99273.24
2017-08-27T19:36:10.470Z,99290.38
2017-08-27T19:38:41.077Z,99294.38
2017-08-27T19:41:11.330Z,99319.58
2017-08-27T19:43:41.422Z,99327.80
2017-08-27T19:46:37.524Z,99276.34
2017-08-27T19:49:39.312Z,99261.64
2017-08-27T19:52:10.230Z,99287.23
2017-08-27T19:54:42.671Z,99286.38
2017-08-27T19:57:12.789Z,99334.53
2017-08-27T19:59:43.366Z,99388.66
2017-08-27T20:02:13.927Z,99309.04
2017-08-27T20:04:44.818Z,99347.56
2017-08-27T20:15:48.786Z,99353.27
2017-08-27T20:21:10.847Z,99361.83
2017-08-27T20:23:40.972Z,99360.23
2017-08-27T20:26:10.780Z,99365.79
2017-08-27T20:28:40.589Z,99356.95
2017-08-27T20:31:10.621Z,99368.93
2017-08-27T20:33:40.364Z,99364.51
2017-08-27T20:36:26.329Z,99322.63
2017-08-27T20:38:57.292Z,99333.70
2017-08-27T20:41:27.847Z,99370.38
2017-08-27T20:44:24.853Z,99408.91
2017-08-27T20:47:24.500Z,99348.45
2017-08-27T20:50:03.315Z,99334.89
2017-08-27T20:55:24.179Z,99343.43
2017-08-27T20:57:56.223Z,99365.00
2017-08-27T21:00:26.565Z,99373.91
2017-08-27T21:03:00.118Z,99340.40
2017-08-27T21:05:30.752Z,99376.33
2017-08-27T21:08:00.871Z,99375.14
2017-08-27T21:10:30.875Z,99373.84
2017-08-27T21:13:01.376Z,99372.80
2017-08-27T21:15:35.360Z,99341.84
2017-08-27T21:18:15.649Z,99371.30
2017-08-27T21:21:05.408Z,99318.94
2017-08-27T21:23:52.353Z,99270.03
2017-08-27T21:26:29.103Z,99334.00
2017-08-27T21:29:05.475Z,99245.05
2017-08-27T21:31:49.790Z,99289.28
2017-08-27T21:34:19.754Z,99376.21
2017-08-27T21:36:50.122Z,99373.66
2017-08-27T21:39:20.052Z,99373.12
2017-08-27T21:41:51.741Z,99328.77
2017-08-27T21:44:24.629Z,99295.13
2017-08-27T21:46:55.587Z,99298.86
2017-08-27T21:49:27.512Z,99374.80
2017-08-27T21:52:00.758Z,99350.55
2017-08-27T21:54:32.668Z,99352.81
2017-08-27T21:57:02.867Z,99375.13
2017-08-27T21:59:32.725Z,99374.38
2017-08-27T22:02:04.305Z,99376.41
2017-08-27T22:04:36.484Z,99325.74
2017-08-27T22:07:06.259Z,99328.70
2017-08-27T22:09:36.567Z,99355.48
2017-08-27T22:12:06.489Z,99379.82
2017-08-27T22:14:36.444Z,99385.62
2017-08-27T22:17:06.202Z,99376.79
2017-08-27T22:19:36.310Z,99383.20
2017-08-27T22:22:06.025Z,99373.48
2017-08-27T22:24:35.742Z,99373.69
2017-08-27T22:27:06.153Z,99377.84
2017-08-27T22:29:36.641Z,99356.45
2017-08-27T22:32:06.932Z,99372.19
2017-08-27T22:34:37.096Z,99380.12
2017-08-27T22:37:07.285Z,99372.66
2017-08-27T22:39:37.577Z,99358.17
2017-08-27T22:42:07.744Z,99379.58
2017-08-27T22:44:37.698Z,99379.83
2017-08-27T22:47:07.379Z,99365.25
2017-08-27T22:49:39.090Z,99384.34
2017-08-27T22:52:09.180Z,99383.88
2017-08-27T22:54:39.098Z,99380.52
2017-08-27T22:57:09.514Z,99383.72
2017-08-27T22:59:39.724Z,99380.13
2017-08-27T23:02:09.782Z,99375.13
2017-08-27T23:04:39.775Z,99381.61
2017-08-27T23:07:09.739Z,99383.33
2017-08-27T23:09:39.440Z,99381.41
2017-08-27T23:12:09.420Z,99362.86
2017-08-27T23:14:39.117Z,99374.06
2017-08-27T23:17:09.060Z,99367.23
2017-08-27T23:19:39.291Z,99364.98
2017-08-27T23:22:09.107Z,99347.73
2017-08-27T23:24:39.059Z,99374.30
2017-08-27T23:27:09.493Z,99366.51
2017-08-27T23:29:39.296Z,99366.83
2017-08-27T23:32:09.439Z,99366.55
2017-08-27T23:34:39.629Z,99371.12
2017-08-27T23:37:09.387Z,99374.98
2017-08-27T23:39:39.346Z,99367.75
2017-08-27T23:42:09.654Z,99362.48
2017-08-27T23:44:39.320Z,99366.14
2017-08-27T23:47:09.025Z,99366.66
2017-08-27T23:49:39.156Z,99355.92
2017-08-27T23:52:08.766Z,99355.52
2017-08-27T23:54:38.448Z,99357.92
2017-08-27T23:57:08.970Z,99353.95
2017-08-27T23:59:38.962Z,99358.73
